Time,TemperatureF,DewpointF,PressureIn,WindDirection,WindDirectionDegrees,WindSpeedMPH,WindSpeedGustMPH,Humidity,HourlyPrecipIn,Conditions,Clouds,dailyrainin,SoftwareType,DateUTC
2013-08-17 00:00:00,60.3,51.7,30.14,SE,135,0.9,0.9,73,0.00,,,0.00,WUHU216HW,2013-08-17 05:00:00,
2013-08-17 00:05:00,60.3,51.7,30.15,South,180,0.7,1.3,73,0.00,,,0.00,WUHU216HW,2013-08-17 05:05:00,
2013-08-17 00:30:00,58.7,50.4,30.15,SW,225,0.0,0.0,74,0.00,,,0.00,WUHU216HW,2013-08-17 05:30:00,
2013-08-17 00:35:00,58.7,50.4,30.15,SSE,158,1.3,1.3,74,0.00,,,0.00,WUHU216HW,2013-08-17 05:35:00,
2013-08-17 00:36:00,58.7,50.4,30.15,SSE,158,1.3,1.3,74,0.00,,,0.00,WUHU216HW,2013-08-17 05:36:00,
2013-08-17 00:40:00,58.7,50.4,30.15,SSE,158,1.3,1.3,74,0.00,,,0.00,WUHU216HW,2013-08-17 05:40:00,
2013-08-17 01:00:00,58.5,50.9,30.15,SW,225,0.0,0.0,76,0.00,,,0.00,WUHU216HW,2013-08-17 06:00:00,
2013-08-17 01:05:00,58.5,50.9,30.15,SW,225,0.0,0.0,76,0.00,,,0.00,WUHU216HW,2013-08-17 06:05:00,
2013-08-17 01:30:00,57.6,50.8,30.15,SE,135,0.4,0.4,78,0.00,,,0.00,WUHU216HW,2013-08-17 06:30:00,
2013-08-17 01:32:00,57.6,50.8,30.15,SE,135,0.4,0.4,78,0.00,,,0.00,WUHU216HW,2013-08-17 06:32:00,
2013-08-17 01:35:00,57.6,50.8,30.15,SE,135,0.4,0.4,78,0.00,,,0.00,WUHU216HW,2013-08-17 06:35:00,
2013-08-17 01:36:00,57.6,50.8,30.15,SE,135,0.4,0.4,78,0.00,,,0.00,WUHU216HW,2013-08-17 06:36:00,
2013-08-17 01:37:00,57.6,50.8,30.15,SE,135,0.4,0.4,78,0.00,,,0.00,WUHU216HW,2013-08-17 06:37:00,
2013-08-17 02:00:00,57.1,50.6,30.15,SE,135,1.1,1.1,79,0.00,,,0.00,WUHU216HW,2013-08-17 07:00:00,
2013-08-17 02:05:00,57.1,50.6,30.15,SE,135,1.1,1.1,79,0.00,,,0.00,WUHU216HW,2013-08-17 07:05:00,
2013-08-17 02:06:00,57.1,50.6,30.15,SE,135,1.1,1.1,79,0.00,,,0.00,WUHU216HW,2013-08-17 07:06:00,
2013-08-17 02:10:00,57.1,50.6,30.15,SE,135,1.1,1.1,79,0.00,,,0.00,WUHU216HW,2013-08-17 07:10:00,
2013-08-17 02:30:00,57.4,51.7,30.14,SSE,158,0.9,0.9,81,0.00,,,0.00,WUHU216HW,2013-08-17 07:30:00,
2013-08-17 02:35:00,57.2,51.5,30.14,SSE,158,0.9,0.9,81,0.00,,,0.00,WUHU216HW,2013-08-17 07:35:00,
2013-08-17 02:36:00,57.2,51.5,30.14,SSE,158,0.9,0.9,81,0.00,,,0.00,WUHU216HW,2013-08-17 07:36:00,
2013-08-17 02:40:00,57.2,51.5,30.14,SSE,158,0.9,0.9,81,0.00,,,0.00,WUHU216HW,2013-08-17 07:40:00,
2013-08-17 03:00:00,57.1,50.9,30.15,SE,135,0.9,0.9,80,0.00,,,0.00,WUHU216HW,2013-08-17 08:00:00,
2013-08-17 03:05:00,57.1,50.9,30.15,SSE,158,0.4,0.9,80,0.00,,,0.00,WUHU216HW,2013-08-17 08:05:00,
2013-08-17 03:10:00,57.1,50.9,30.15,SSE,158,0.4,0.7,80,0.00,,,0.00,WUHU216HW,2013-08-17 08:10:00,
2013-08-17 03:30:00,56.5,51.0,30.15,SE,135,0.9,0.9,82,0.00,,,0.00,WUHU216HW,2013-08-17 08:30:00,
2013-08-17 03:35:00,56.5,51.0,30.15,ESE,113,1.1,1.1,82,0.00,,,0.00,WUHU216HW,2013-08-17 08:35:00,
2013-08-17 03:36:00,56.5,51.0,30.15,ESE,113,1.1,1.1,82,0.00,,,0.00,WUHU216HW,2013-08-17 08:36:00,
2013-08-17 04:00:00,56.3,50.9,30.15,SE,135,0.9,0.9,82,0.00,,,0.00,WUHU216HW,2013-08-17 09:00:00,
2013-08-17 04:05:00,56.5,51.0,30.15,SE,135,0.9,0.9,82,0.00,,,0.00,WUHU216HW,2013-08-17 09:05:00,
2013-08-17 04:10:00,56.5,51.0,30.15,SE,135,0.9,0.9,82,0.00,,,0.00,WUHU216HW,2013-08-17 09:10:00,
2013-08-17 04:30:00,56.7,51.6,30.16,SE,135,1.1,1.1,83,0.00,,,0.00,WUHU216HW,2013-08-17 09:30:00,
2013-08-17 04:35:00,56.7,51.6,30.16,SSE,158,1.8,1.8,83,0.00,,,0.00,WUHU216HW,2013-08-17 09:35:00,
2013-08-17 04:36:00,56.7,51.6,30.16,SSE,158,1.8,1.8,83,0.00,,,0.00,WUHU216HW,2013-08-17 09:36:00,
2013-08-17 05:00:00,56.5,51.0,30.16,SSE,158,1.1,1.1,82,0.00,,,0.00,WUHU216HW,2013-08-17 10:00:00,
2013-08-17 05:05:00,56.5,51.0,30.16,SSE,158,1.1,1.1,82,0.00,,,0.00,WUHU216HW,2013-08-17 10:05:00,
2013-08-17 05:06:00,56.5,51.0,30.16,SSE,158,1.1,1.1,82,0.00,,,0.00,WUHU216HW,2013-08-17 10:06:00,
2013-08-17 05:10:00,56.5,51.0,30.16,SSE,158,1.1,1.1,82,0.00,,,0.00,WUHU216HW,2013-08-17 10:10:00,
2013-08-17 05:30:00,57.6,52.1,30.16,SE,135,1.8,1.8,82,0.00,,,0.00,WUHU216HW,2013-08-17 10:30:00,
2013-08-17 05:31:00,57.6,52.1,30.16,SE,135,1.7,1.8,82,0.00,,,0.00,WUHU216HW,2013-08-17 10:31:00,
2013-08-17 05:35:00,57.6,52.1,30.16,SE,135,1.6,1.8,82,0.00,,,0.00,WUHU216HW,2013-08-17 10:35:00,
2013-08-17 05:36:00,57.6,52.1,30.16,SE,135,1.6,1.8,82,0.00,,,0.00,WUHU216HW,2013-08-17 10:36:00,
2013-08-17 05:40:00,57.6,52.1,30.16,SE,135,1.6,1.6,82,0.00,,,0.00,WUHU216HW,2013-08-17 10:40:00,
2013-08-17 06:00:00,58.0,52.2,30.16,SSW,203,1.8,1.8,81,0.00,,,0.00,WUHU216HW,2013-08-17 11:00:00,
2013-08-17 06:05:00,58.0,52.2,30.16,SE,135,1.8,1.8,81,0.00,,,0.00,WUHU216HW,2013-08-17 11:05:00,
2013-08-17 06:10:00,58.0,52.2,30.16,SE,135,1.8,1.8,81,0.00,,,0.00,WUHU216HW,2013-08-17 11:10:00,
2013-08-17 06:30:00,57.1,51.6,30.17,ESE,113,2.5,2.5,82,0.00,,,0.00,WUHU216HW,2013-08-17 11:30:00,
2013-08-17 06:31:00,57.2,51.8,30.17,SE,127,2.4,2.5,82,0.00,,,0.00,WUHU216HW,2013-08-17 11:31:00,
2013-08-17 06:35:00,57.2,51.8,30.17,SE,135,2.2,2.5,82,0.00,,,0.00,WUHU216HW,2013-08-17 11:35:00,
2013-08-17 06:36:00,57.2,51.8,30.17,SE,135,2.2,2.5,82,0.00,,,0.00,WUHU216HW,2013-08-17 11:36:00,
2013-08-17 07:00:00,60.3,53.5,30.17,ESE,113,0.7,0.7,78,0.00,,,0.00,WUHU216HW,2013-08-17 12:00:00,
2013-08-17 07:05:00,60.5,53.6,30.17,SE,135,1.3,1.3,78,0.00,,,0.00,WUHU216HW,2013-08-17 12:05:00,
2013-08-17 07:06:00,60.5,53.6,30.17,SE,135,1.3,1.3,78,0.00,,,0.00,WUHU216HW,2013-08-17 12:06:00,
2013-08-17 07:10:00,60.5,53.6,30.17,SE,135,1.3,1.3,78,0.00,,,0.00,WUHU216HW,2013-08-17 12:10:00,
2013-08-17 07:30:00,64.3,55.8,30.17,SE,135,1.3,1.3,74,0.00,,,0.00,WUHU216HW,2013-08-17 12:30:00,
2013-08-17 07:31:00,64.3,55.8,30.17,ESE,113,1.6,1.6,74,0.00,,,0.00,WUHU216HW,2013-08-17 12:31:00,
2013-08-17 07:35:00,64.3,55.8,30.17,ESE,113,1.6,1.6,74,0.00,,,0.00,WUHU216HW,2013-08-17 12:35:00,
2013-08-17 07:36:00,64.3,55.8,30.17,ESE,113,1.6,1.6,74,0.00,,,0.00,WUHU216HW,2013-08-17 12:36:00,
2013-08-17 07:40:00,64.3,55.8,30.17,ESE,113,1.6,1.6,74,0.00,,,0.00,WUHU216HW,2013-08-17 12:40:00,
2013-08-17 08:00:00,66.6,56.9,30.17,WSW,248,2.2,2.2,71,0.00,,,0.00,WUHU216HW,2013-08-17 13:00:00,
2013-08-17 08:05:00,66.6,56.5,30.17,WSW,248,2.2,2.2,70,0.00,,,0.00,WUHU216HW,2013-08-17 13:05:00,
2013-08-17 08:10:00,66.6,56.5,30.17,WSW,248,2.2,2.2,70,0.00,,,0.00,WUHU216HW,2013-08-17 13:10:00,
2013-08-17 08:30:00,68.0,57.5,30.17,SSE,158,1.1,1.1,69,0.00,,,0.00,WUHU216HW,2013-08-17 13:30:00,
2013-08-17 08:31:00,68.2,57.7,30.17,SSW,196,0.8,1.1,69,0.00,,,0.00,WUHU216HW,2013-08-17 13:31:00,
2013-08-17 08:35:00,68.2,57.7,30.17,SW,225,0.7,1.1,69,0.00,,,0.00,WUHU216HW,2013-08-17 13:35:00,
2013-08-17 08:36:00,68.2,57.7,30.17,SW,225,0.7,1.1,69,0.00,,,0.00,WUHU216HW,2013-08-17 13:36:00,
2013-08-17 09:00:00,70.6,58.2,30.17,SSE,158,2.0,2.0,65,0.00,,,0.00,WUHU216HW,2013-08-17 14:00:00,
2013-08-17 09:05:00,70.6,58.2,30.17,SW,225,2.5,2.5,65,0.00,,,0.00,WUHU216HW,2013-08-17 14:05:00,
2013-08-17 09:10:00,70.6,58.2,30.17,SW,225,2.5,2.5,65,0.00,,,0.00,WUHU216HW,2013-08-17 14:10:00,
2013-08-17 09:30:00,72.7,58.5,30.17,South,180,4.5,4.5,61,0.00,,,0.00,WUHU216HW,2013-08-17 14:30:00,
2013-08-17 09:31:00,72.7,58.5,30.17,South,183,3.8,4.5,61,0.00,,,0.00,WUHU216HW,2013-08-17 14:31:00,
2013-08-17 09:35:00,72.7,58.5,30.17,SW,225,2.9,4.5,61,0.00,,,0.00,WUHU216HW,2013-08-17 14:35:00,
2013-08-17 09:36:00,72.7,58.5,30.17,SW,225,2.9,4.5,61,0.00,,,0.00,WUHU216HW,2013-08-17 14:36:00,
2013-08-17 09:40:00,72.7,58.5,30.17,SW,225,2.9,4.0,61,0.00,,,0.00,WUHU216HW,2013-08-17 14:40:00,
2013-08-17 10:00:00,73.6,57.9,30.17,SSW,203,8.3,8.3,58,0.00,,,0.00,WUHU216HW,2013-08-17 15:00:00,
2013-08-17 10:01:00,73.4,57.7,30.17,South,188,7.7,8.3,58,0.00,,,0.00,WUHU216HW,2013-08-17 15:01:00,
2013-08-17 10:05:00,73.4,57.7,30.17,South,180,7.4,8.3,58,0.00,,,0.00,WUHU216HW,2013-08-17 15:05:00,
2013-08-17 10:06:00,73.4,57.7,30.17,South,180,7.4,8.3,58,0.00,,,0.00,WUHU216HW,2013-08-17 15:06:00,
2013-08-17 10:10:00,73.4,57.7,30.17,South,180,7.4,7.4,58,0.00,,,0.00,WUHU216HW,2013-08-17 15:10:00,
2013-08-17 10:30:00,74.9,57.1,30.17,SW,225,11.2,11.2,54,0.00,,,0.00,WUHU216HW,2013-08-17 15:30:00,
2013-08-17 10:31:00,74.9,57.1,30.17,SW,225,10.7,11.2,54,0.00,,,0.00,WUHU216HW,2013-08-17 15:31:00,
2013-08-17 10:35:00,74.9,57.1,30.17,SW,225,9.8,11.2,54,0.00,,,0.00,WUHU216HW,2013-08-17 15:35:00,
2013-08-17 10:36:00,74.9,57.1,30.17,SW,225,9.8,11.2,54,0.00,,,0.00,WUHU216HW,2013-08-17 15:36:00,
2013-08-17 10:40:00,74.9,57.1,30.17,SW,225,9.8,9.8,54,0.00,,,0.00,WUHU216HW,2013-08-17 15:40:00,
2013-08-17 11:00:00,75.6,57.8,30.17,SSE,158,5.1,5.1,54,0.00,,,0.00,WUHU216HW,2013-08-17 16:00:00,
2013-08-17 11:05:00,75.6,57.8,30.16,SSW,203,4.0,5.1,54,0.00,,,0.00,WUHU216HW,2013-08-17 16:05:00,
2013-08-17 11:10:00,75.6,57.8,30.16,SSW,203,4.0,4.0,54,0.00,,,0.00,WUHU216HW,2013-08-17 16:10:00,
2013-08-17 11:30:00,77.9,57.2,30.16,NNW,338,1.6,1.6,49,0.00,,,0.00,WUHU216HW,2013-08-17 16:30:00,
2013-08-17 11:35:00,78.1,57.4,30.16,East,90,3.4,3.4,49,0.00,,,0.00,WUHU216HW,2013-08-17 16:35:00,
2013-08-17 12:00:00,77.6,55.1,30.15,SW,225,6.7,6.7,46,0.00,,,0.00,WUHU216HW,2013-08-17 17:00:00,
2013-08-17 12:05:00,77.6,54.5,30.16,SE,135,6.3,7.8,45,0.00,,,0.00,WUHU216HW,2013-08-17 17:05:00,
2013-08-17 12:10:00,77.6,54.5,30.16,SE,135,6.3,6.3,45,0.00,,,0.00,WUHU216HW,2013-08-17 17:10:00,
2013-08-17 12:30:00,78.8,55.6,30.14,SSW,203,6.9,6.9,45,0.00,,,0.00,WUHU216HW,2013-08-17 17:30:00,
2013-08-17 12:31:00,78.8,55.6,30.14,SW,225,7.6,7.6,45,0.00,,,0.00,WUHU216HW,2013-08-17 17:31:00,
2013-08-17 12:35:00,78.8,55.6,30.14,SW,225,7.6,7.6,45,0.00,,,0.00,WUHU216HW,2013-08-17 17:35:00,
2013-08-17 12:36:00,78.8,55.6,30.14,SW,225,7.6,7.6,45,0.00,,,0.00,WUHU216HW,2013-08-17 17:36:00,
2013-08-17 12:40:00,78.8,55.6,30.14,SW,225,7.6,7.6,45,0.00,,,0.00,WUHU216HW,2013-08-17 17:40:00,
2013-08-17 13:00:00,79.9,56.0,30.14,SSE,158,5.6,5.6,44,0.00,,,0.00,WUHU216HW,2013-08-17 18:00:00,
2013-08-17 13:05:00,79.9,56.0,30.14,SSE,158,4.0,5.6,44,0.00,,,0.00,WUHU216HW,2013-08-17 18:05:00,
2013-08-17 13:10:00,79.9,56.0,30.14,SSE,158,4.0,5.6,44,0.00,,,0.00,WUHU216HW,2013-08-17 18:10:00,
2013-08-17 13:30:00,79.9,54.7,30.13,WSW,248,6.0,6.0,42,0.00,,,0.00,WUHU216HW,2013-08-17 18:30:00,
2013-08-17 13:31:00,79.9,55.4,30.13,WSW,248,6.0,6.0,43,0.00,,,0.00,WUHU216HW,2013-08-17 18:31:00,
2013-08-17 13:35:00,79.9,55.4,30.13,WSW,248,6.0,6.0,43,0.00,,,0.00,WUHU216HW,2013-08-17 18:35:00,
2013-08-17 13:36:00,79.9,55.4,30.13,WSW,248,6.0,6.0,43,0.00,,,0.00,WUHU216HW,2013-08-17 18:36:00,
2013-08-17 13:40:00,79.9,55.4,30.13,WSW,248,6.0,6.0,43,0.00,,,0.00,WUHU216HW,2013-08-17 18:40:00,
2013-08-17 14:00:00,79.9,54.7,30.13,South,180,6.3,6.3,42,0.00,,,0.00,WUHU216HW,2013-08-17 19:00:00,
2013-08-17 14:05:00,79.7,55.2,30.13,South,180,6.3,6.3,43,0.00,,,0.00,WUHU216HW,2013-08-17 19:05:00,
2013-08-17 14:06:00,79.7,55.2,30.13,South,180,6.3,6.3,43,0.00,,,0.00,WUHU216HW,2013-08-17 19:06:00,
2013-08-17 14:10:00,79.7,55.2,30.13,South,180,6.3,6.3,43,0.00,,,0.00,WUHU216HW,2013-08-17 19:10:00,
2013-08-17 14:30:00,81.0,55.7,30.12,SW,225,8.9,8.9,42,0.00,,,0.00,WUHU216HW,2013-08-17 19:30:00,
2013-08-17 14:35:00,81.0,55.7,30.12,WSW,248,8.9,8.9,42,0.00,,,0.00,WUHU216HW,2013-08-17 19:35:00,
2013-08-17 14:36:00,81.0,55.7,30.12,WSW,248,8.9,8.9,42,0.00,,,0.00,WUHU216HW,2013-08-17 19:36:00,
2013-08-17 14:40:00,81.0,55.7,30.12,WSW,248,8.9,8.9,42,0.00,,,0.00,WUHU216HW,2013-08-17 19:40:00,
2013-08-17 15:00:00,82.1,56.7,30.11,SSE,158,2.7,2.7,42,0.00,,,0.00,WUHU216HW,2013-08-17 20:00:00,
2013-08-17 15:05:00,82.1,56.7,30.12,SE,135,3.8,3.8,42,0.00,,,0.00,WUHU216HW,2013-08-17 20:05:00,
2013-08-17 15:10:00,82.1,56.7,30.12,SE,135,3.8,3.8,42,0.00,,,0.00,WUHU216HW,2013-08-17 20:10:00,
2013-08-17 15:30:00,82.8,56.2,30.11,South,180,5.4,5.4,40,0.00,,,0.00,WUHU216HW,2013-08-17 20:30:00,
2013-08-17 15:31:00,82.6,56.0,30.11,South,180,4.4,5.4,40,0.00,,,0.00,WUHU216HW,2013-08-17 20:31:00,
2013-08-17 15:35:00,82.6,56.0,30.11,South,180,2.5,5.4,40,0.00,,,0.00,WUHU216HW,2013-08-17 20:35:00,
2013-08-17 15:36:00,82.6,56.0,30.11,South,180,2.5,5.4,40,0.00,,,0.00,WUHU216HW,2013-08-17 20:36:00,
2013-08-17 16:00:00,83.9,57.1,30.11,South,180,3.6,3.6,40,0.00,,,0.00,WUHU216HW,2013-08-17 21:00:00,
2013-08-17 16:05:00,83.9,55.5,30.11,SE,135,8.3,8.3,38,0.00,,,0.00,WUHU216HW,2013-08-17 21:05:00,
2013-08-17 16:10:00,83.9,55.5,30.11,SE,135,8.3,8.3,38,0.00,,,0.00,WUHU216HW,2013-08-17 21:10:00,
2013-08-17 16:30:00,82.6,56.0,30.10,South,180,6.3,6.3,40,0.00,,,0.00,WUHU216HW,2013-08-17 21:30:00,
2013-08-17 16:35:00,82.4,55.8,30.10,SSW,203,8.1,8.1,40,0.00,,,0.00,WUHU216HW,2013-08-17 21:35:00,
2013-08-17 16:40:00,82.4,55.8,30.10,SSW,203,8.1,8.1,40,0.00,,,0.00,WUHU216HW,2013-08-17 21:40:00,
2013-08-17 17:00:00,83.5,56.8,30.10,South,180,4.7,4.7,40,0.00,,,0.00,WUHU216HW,2013-08-17 22:00:00,
2013-08-17 17:05:00,83.5,56.8,30.09,SSE,158,4.0,4.7,40,0.00,,,0.00,WUHU216HW,2013-08-17 22:05:00,
2013-08-17 17:10:00,83.5,56.8,30.09,SSE,158,4.0,4.0,40,0.00,,,0.00,WUHU216HW,2013-08-17 22:10:00,
2013-08-17 17:30:00,82.6,56.0,30.09,WNW,293,4.9,4.9,40,0.00,,,0.00,WUHU216HW,2013-08-17 22:30:00,
2013-08-17 17:35:00,82.4,55.8,30.09,SSW,203,7.6,7.6,40,0.00,,,0.00,WUHU216HW,2013-08-17 22:35:00,
2013-08-17 17:36:00,82.4,55.8,30.09,SSW,203,7.6,7.6,40,0.00,,,0.00,WUHU216HW,2013-08-17 22:36:00,
2013-08-17 17:40:00,82.4,55.8,30.09,SSW,203,7.6,7.6,40,0.00,,,0.00,WUHU216HW,2013-08-17 22:40:00,
2013-08-17 18:00:00,82.8,56.7,30.09,SSW,203,4.0,4.0,41,0.00,,,0.00,WUHU216HW,2013-08-17 23:00:00,
2013-08-17 18:05:00,82.8,56.7,30.09,South,180,2.2,4.0,41,0.00,,,0.00,WUHU216HW,2013-08-17 23:05:00,
2013-08-17 18:10:00,82.8,56.7,30.09,South,180,2.2,2.7,41,0.00,,,0.00,WUHU216HW,2013-08-17 23:10:00,
2013-08-17 18:30:00,81.5,56.3,30.08,West,270,2.0,2.0,42,0.00,,,0.00,WUHU216HW,2013-08-17 23:30:00,
2013-08-17 18:35:00,81.5,56.3,30.08,WSW,248,3.6,3.6,42,0.00,,,0.00,WUHU216HW,2013-08-17 23:35:00,
2013-08-17 18:36:00,81.5,56.3,30.08,WSW,248,3.6,3.6,42,0.00,,,0.00,WUHU216HW,2013-08-17 23:36:00,
2013-08-17 19:00:00,81.2,55.9,30.08,SW,225,3.8,3.8,42,0.00,,,0.00,WUHU216HW,2013-08-18 00:00:00,
2013-08-17 19:05:00,81.2,55.9,30.08,SSE,158,4.5,4.5,42,0.00,,,0.00,WUHU216HW,2013-08-18 00:05:00,
2013-08-17 19:06:00,81.2,55.9,30.08,SSE,158,4.5,4.5,42,0.00,,,0.00,WUHU216HW,2013-08-18 00:06:00,
2013-08-17 19:10:00,81.2,55.9,30.08,SSE,158,4.5,4.5,42,0.00,,,0.00,WUHU216HW,2013-08-18 00:10:00,
2013-08-17 19:30:00,80.1,56.8,30.08,WSW,248,2.0,2.0,45,0.00,,,0.00,WUHU216HW,2013-08-18 00:30:00,
2013-08-17 19:35:00,80.1,56.8,30.08,North,0,0.4,2.0,45,0.00,,,0.00,WUHU216HW,2013-08-18 00:35:00,
2013-08-17 19:36:00,80.1,56.8,30.08,North,0,0.4,2.0,45,0.00,,,0.00,WUHU216HW,2013-08-18 00:36:00,
2013-08-17 20:00:00,77.0,56.4,30.09,SE,135,2.0,2.0,49,0.00,,,0.00,WUHU216HW,2013-08-18 01:00:00,
2013-08-17 20:05:00,77.0,56.4,30.09,SE,135,2.0,2.0,49,0.00,,,0.00,WUHU216HW,2013-08-18 01:05:00,
2013-08-17 20:30:00,73.3,56.0,30.08,South,180,1.8,1.8,55,0.00,,,0.00,WUHU216HW,2013-08-18 01:30:00,
2013-08-17 20:35:00,73.1,55.8,30.08,SSE,158,0.7,1.8,55,0.00,,,0.00,WUHU216HW,2013-08-18 01:35:00,
2013-08-17 20:40:00,73.1,55.8,30.08,SSE,158,0.7,1.1,55,0.00,,,0.00,WUHU216HW,2013-08-18 01:40:00,
2013-08-17 21:00:00,71.1,56.1,30.09,SE,135,1.8,1.8,59,0.00,,,0.00,WUHU216HW,2013-08-18 02:00:00,
2013-08-17 21:05:00,71.1,55.5,30.09,SE,135,0.7,1.8,58,0.00,,,0.00,WUHU216HW,2013-08-18 02:05:00,
2013-08-17 21:30:00,68.9,55.0,30.08,SE,135,0.9,0.9,61,0.00,,,0.00,WUHU216HW,2013-08-18 02:30:00,
2013-08-17 21:35:00,68.9,55.0,30.08,SE,135,0.9,0.9,61,0.00,,,0.00,WUHU216HW,2013-08-18 02:35:00,
2013-08-17 21:36:00,68.9,55.0,30.08,SE,135,0.9,0.9,61,0.00,,,0.00,WUHU216HW,2013-08-18 02:36:00,
2013-08-17 22:00:00,67.9,54.4,30.09,SW,225,0.2,0.2,62,0.00,,,0.00,WUHU216HW,2013-08-18 03:00:00,
2013-08-17 22:05:00,67.9,54.4,30.09,SW,225,0.2,0.2,62,0.00,,,0.00,WUHU216HW,2013-08-18 03:05:00,
2013-08-17 22:30:00,66.6,54.0,30.08,South,180,0.0,0.0,64,0.00,,,0.00,WUHU216HW,2013-08-18 03:30:00,
2013-08-17 22:35:00,66.6,54.0,30.08,South,180,0.0,0.0,64,0.00,,,0.00,WUHU216HW,2013-08-18 03:35:00,
2013-08-17 23:00:00,66.2,54.1,30.08,SE,135,0.4,0.4,65,0.00,,,0.00,WUHU216HW,2013-08-18 04:00:00,
2013-08-17 23:01:00,66.2,54.1,30.08,SE,135,0.4,0.4,65,0.00,,,0.00,WUHU216HW,2013-08-18 04:01:00,
2013-08-17 23:06:00,66.2,54.1,30.08,SE,135,0.4,0.4,65,0.00,,,0.00,WUHU216HW,2013-08-18 04:06:00,
2013-08-17 23:30:00,65.0,53.7,30.08,SSE,158,0.4,0.4,67,0.00,,,0.00,WUHU216HW,2013-08-18 04:30:00,
2013-08-17 23:32:00,65.0,53.7,30.08,SSE,158,0.0,0.0,67,0.00,,,0.00,WUHU216HW,2013-08-18 04:32:00,
2013-08-17 23:35:00,65.0,53.7,30.08,SSE,158,0.0,0.4,67,0.00,,,0.00,WUHU216HW,2013-08-18 04:35:00,
2013-08-17 23:36:00,65.0,53.7,30.08,SSE,158,0.0,0.4,67,0.00,,,0.00,WUHU216HW,2013-08-18 04:36:00,
2013-08-17 23:40:00,65.0,53.7,30.08,SSE,158,0.0,0.4,67,0.00,,,0.00,WUHU216HW,2013-08-18 04:40:00,
2013-08-17 23:41:00,65.0,53.7,30.08,SSE,158,0.0,0.4,67,0.00,,,0.00,WUHU216HW,2013-08-18 04:41:00,